This is the latest recevied weather packets stored in our database for station/object NO3B-10. If no packets are shown the sender has not sent any weather packets the latest 10 day(s).
| Time | Temp. | Humidity | Pressure | Rain* | Wind** | Luminosity | Snow |
|---|---|---|---|---|---|---|---|
| 1788134037 | 26.11° C | 84% | 1016.4 hPa | 0 mm | - | - | - |
| 1788133139 | 26.67° C | 85% | 1016.4 hPa | 0 mm | - | - | - |
| 1788093541 | 21.67° C | 100% | 1020.3 hPa | 0 mm | - | - | - |
| 1788080042 | 20° C | 99% | 1019.7 hPa | 0 mm | - | - | - |
| 1788079142 | 20° C | 99% | 1019.7 hPa | 0 mm | - | - | - |
| 1788075543 | 20° C | 98% | 1019.9 hPa | 0 mm | - | - | - |
| 1788072844 | 20.56° C | 99% | 1020.2 hPa | 0 mm | - | - | - |
| 1788071942 | 20.56° C | 98% | 1020.3 hPa | 0 mm | - | - | - |
| 1788068342 | 20° C | 97% | 1020.6 hPa | 0 mm | - | - | - |
| 1788048544 | 21.67° C | 85% | 1019.1 hPa | 0 mm | - | - | - |
| 1788025145 | 24.44° C | 70% | 1021.7 hPa | 0 mm | - | - | - |
| 1788000845 | 20.56° C | 99% | 1019.3 hPa | 0 mm | - | - | - |
| 1787998145 | 20.56° C | 99% | 1018.5 hPa | 0 mm | - | - | - |
| 1787997245 | 20.56° C | 99% | 1018.4 hPa | 0 mm | - | - | - |
| 1787993647 | 20.56° C | 99% | 1018 hPa | 0 mm | - | - | - |
| 1787991845 | 20.56° C | 99% | 1017.7 hPa | 0 mm | - | - | - |
| 1787990945 | 20.56° C | 99% | 1017.7 hPa | 0 mm | - | - | - |
| 1787990045 | 20.56° C | 98% | 1017.6 hPa | 0 mm | - | - | - |
| 1787988245 | 20.56° C | 98% | 1017.4 hPa | 0 mm | - | - | - |
| 1787987630 | 20.56° C | 98% | 1017.5 hPa | 0 mm | - | - | - |
| 1787987345 | 20.56° C | 98% | 1017.5 hPa | 0 mm | - | - | - |
| 1787985545 | 21.11° C | 98% | 1017 hPa | 0 mm | - | - | - |
| 1787982845 | 22.22° C | 99% | 1016.6 hPa | 0 mm | - | - | - |
| 1787980762 | 21.11° C | 97% | 1016.8 hPa | 0 mm | - | - | - |
| 1787980146 | 21.11° C | 97% | 1016.8 hPa | 0 mm | - | - | - |
* Rain latest hour (hover to see other rain measurements)
** Current wind speed in m/s (hover to see current wind gust speed)